Time;durP1;ratioP1;P1;durP2;ratioP2;P2;SDS_P1;SDS_P2;PMS_P1;PMS_P2;Temp;Humidity;BMP_temperature;BMP_pressure;BME280_temperature;BME280_humidity;BME280_pressure;Samples;Min_cycle;Max_cycle;Signal;HPM_P1;HPM_P2
2022/07/08 00:01:44;;;;;;;9.45;2.90;;;;;;;;;;5011861;28;20054;-84
2022/07/08 00:04:10;;;;;;;9.85;2.60;;;;;;;;;;5011236;28;20048;-83
2022/07/08 00:06:36;;;;;;;8.10;2.47;;;;;;;;;;4993947;28;20053;-84
2022/07/08 00:09:02;;;;;;;7.03;2.80;;;;;;;;;;5010357;28;20395;-84
2022/07/08 00:11:28;;;;;;;7.70;2.72;;;;;;;;;;4992962;28;20068;-84
2022/07/08 00:13:54;;;;;;;9.82;2.90;;;;;;;;;;4992073;28;20049;-83
2022/07/08 00:16:20;;;;;;;8.40;2.90;;;;;;;;;;5011440;28;20046;-84
2022/07/08 00:18:46;;;;;;;8.13;3.08;;;;;;;;;;5010807;28;20095;-84
2022/07/08 00:21:12;;;;;;;9.00;2.65;;;;;;;;;;5010851;28;20116;-84
2022/07/08 00:23:38;;;;;;;9.15;3.40;;;;;;;;;;5011637;28;20072;-83
2022/07/08 00:26:04;;;;;;;9.23;2.55;;;;;;;;;;4993719;28;20085;-84
2022/07/08 00:28:30;;;;;;;8.10;2.90;;;;;;;;;;5008704;28;20042;-84
2022/07/08 00:30:56;;;;;;;8.88;2.50;;;;;;;;;;5010909;28;20483;-83
2022/07/08 00:33:23;;;;;;;11.35;3.35;;;;;;;;;;4993238;28;20522;-84
2022/07/08 00:35:48;;;;;;;10.07;2.80;;;;;;;;;;4993410;28;20482;-84
2022/07/08 00:38:15;;;;;;;9.13;2.92;;;;;;;;;;4992604;28;20475;-84
2022/07/08 00:40:41;;;;;;;9.13;2.70;;;;;;;;;;5010904;28;20442;-84
2022/07/08 00:43:07;;;;;;;11.60;3.20;;;;;;;;;;5001356;28;20049;-84
2022/07/08 00:45:33;;;;;;;7.40;2.60;;;;;;;;;;4991237;28;20062;-84
2022/07/08 00:47:59;;;;;;;7.13;2.78;;;;;;;;;;5009372;28;20073;-84
2022/07/08 00:50:25;;;;;;;10.52;3.17;;;;;;;;;;5010739;28;20046;-84
2022/07/08 00:52:51;;;;;;;8.00;2.58;;;;;;;;;;5010961;28;20104;-84
2022/07/08 00:55:17;;;;;;;6.72;2.78;;;;;;;;;;4993154;28;20072;-84
2022/07/08 00:57:44;;;;;;;10.07;3.20;;;;;;;;;;4992373;28;20046;-83
2022/07/08 01:00:10;;;;;;;9.20;3.10;;;;;;;;;;4992114;28;20124;-84
2022/07/08 01:02:36;;;;;;;5.88;2.67;;;;;;;;;;4992808;28;20084;-84
2022/07/08 01:05:02;;;;;;;6.85;2.83;;;;;;;;;;4992205;28;20077;-84
2022/07/08 01:07:28;;;;;;;8.05;2.92;;;;;;;;;;4992840;28;20048;-84
2022/07/08 01:09:54;;;;;;;7.63;2.90;;;;;;;;;;4992227;28;20050;-84
2022/07/08 01:12:20;;;;;;;10.57;2.78;;;;;;;;;;4992363;28;20046;-83
2022/07/08 01:14:46;;;;;;;8.15;3.05;;;;;;;;;;4993037;28;20132;-84
2022/07/08 01:17:12;;;;;;;8.40;2.92;;;;;;;;;;5010072;28;20141;-84
2022/07/08 01:19:38;;;;;;;6.47;2.83;;;;;;;;;;5008414;28;20128;-83
2022/07/08 01:22:04;;;;;;;6.70;2.83;;;;;;;;;;5009741;28;20137;-83
2022/07/08 01:24:30;;;;;;;10.32;3.00;;;;;;;;;;5010520;28;20541;-84
2022/07/08 01:26:57;;;;;;;7.30;2.40;;;;;;;;;;5009026;28;20121;-84
2022/07/08 01:29:23;;;;;;;6.43;2.60;;;;;;;;;;5009635;28;20064;-84
2022/07/08 01:31:53;;;;;;;11.75;3.13;;;;;;;;;;5010227;28;20045;-84
2022/07/08 01:34:19;;;;;;;4.13;2.40;;;;;;;;;;5010217;28;20052;-83
2022/07/08 01:36:45;;;;;;;10.35;3.05;;;;;;;;;;5010244;28;20495;-84
2022/07/08 01:39:11;;;;;;;7.07;2.80;;;;;;;;;;5009175;28;20577;-84
2022/07/08 01:41:37;;;;;;;7.25;2.30;;;;;;;;;;5009713;28;20049;-84
2022/07/08 01:44:03;;;;;;;6.60;2.58;;;;;;;;;;4983613;28;20046;-83
2022/07/08 01:46:29;;;;;;;7.93;2.72;;;;;;;;;;4976413;28;20137;-84
2022/07/08 01:48:55;;;;;;;8.00;2.95;;;;;;;;;;5008870;28;20120;-84
2022/07/08 01:51:21;;;;;;;9.25;2.75;;;;;;;;;;4976103;28;20449;-83
2022/07/08 01:53:47;;;;;;;7.18;2.95;;;;;;;;;;5010202;28;20110;-83
2022/07/08 01:56:13;;;;;;;8.23;2.70;;;;;;;;;;5008804;28;20053;-84
2022/07/08 01:58:39;;;;;;;6.35;2.60;;;;;;;;;;5006686;28;20038;-84
2022/07/08 02:01:05;;;;;;;8.43;2.67;;;;;;;;;;5009411;28;20410;-84
2022/07/08 02:03:31;;;;;;;6.32;3.00;;;;;;;;;;5008603;28;20042;-83
2022/07/08 02:05:57;;;;;;;10.27;2.97;;;;;;;;;;5009735;28;20046;-84
2022/07/08 02:08:23;;;;;;;10.10;3.13;;;;;;;;;;5009056;28;20053;-84
2022/07/08 02:13:35;;;;;;;10.15;2.90;;;;;;;;;;5009708;28;20077;-84
2022/07/08 02:16:01;;;;;;;6.80;2.67;;;;;;;;;;5008093;28;20460;-83
2022/07/08 02:18:27;;;;;;;10.43;3.25;;;;;;;;;;5008440;28;20042;-84
2022/07/08 02:20:53;;;;;;;8.25;2.60;;;;;;;;;;5009803;28;20128;-83
2022/07/08 02:23:19;;;;;;;6.32;3.03;;;;;;;;;;5009810;28;20137;-84
2022/07/08 02:25:45;;;;;;;7.32;2.95;;;;;;;;;;5009427;28;20046;-83
2022/07/08 02:28:11;;;;;;;9.65;3.30;;;;;;;;;;5008331;28;20041;-83
2022/07/08 02:30:37;;;;;;;7.15;2.70;;;;;;;;;;4991210;28;20054;-84
2022/07/08 02:33:03;;;;;;;8.90;2.97;;;;;;;;;;5009031;28;20050;-83
2022/07/08 02:35:29;;;;;;;9.35;2.70;;;;;;;;;;5008880;28;20042;-83
2022/07/08 02:37:55;;;;;;;9.75;3.20;;;;;;;;;;4992079;28;20046;-83
2022/07/08 02:40:21;;;;;;;10.45;2.85;;;;;;;;;;4992128;28;20046;-84
2022/07/08 02:42:47;;;;;;;12.45;3.30;;;;;;;;;;5009373;28;20557;-84
2022/07/08 02:45:13;;;;;;;10.48;2.90;;;;;;;;;;5007627;28;20093;-83
2022/07/08 02:47:39;;;;;;;7.07;2.80;;;;;;;;;;5009001;28;20133;-83
2022/07/08 02:50:06;;;;;;;9.57;3.20;;;;;;;;;;5009375;28;20061;-84
2022/07/08 02:52:32;;;;;;;8.30;2.85;;;;;;;;;;4992281;28;20138;-84
2022/07/08 02:54:58;;;;;;;7.95;2.83;;;;;;;;;;5008313;28;20042;-84
2022/07/08 02:57:24;;;;;;;6.70;2.70;;;;;;;;;;4992006;28;20089;-84
2022/07/08 02:59:50;;;;;;;5.68;2.90;;;;;;;;;;4990679;28;20046;-84
2022/07/08 03:02:16;;;;;;;6.43;2.75;;;;;;;;;;5009486;28;20041;-84
2022/07/08 03:04:42;;;;;;;6.95;2.83;;;;;;;;;;5009521;28;20553;-84
2022/07/08 03:07:08;;;;;;;10.70;3.03;;;;;;;;;;5007519;28;20042;-83
2022/07/08 03:09:34;;;;;;;8.18;2.92;;;;;;;;;;5009219;28;20054;-84
2022/07/08 03:12:00;;;;;;;8.55;2.85;;;;;;;;;;4991673;28;20395;-83
2022/07/08 03:14:26;;;;;;;6.03;3.10;;;;;;;;;;4994014;28;20042;-84
2022/07/08 03:16:52;;;;;;;9.77;2.75;;;;;;;;;;4994029;28;20077;-83
2022/07/08 03:19:18;;;;;;;7.18;3.05;;;;;;;;;;5012933;28;20132;-84
2022/07/08 03:21:44;;;;;;;11.35;3.42;;;;;;;;;;4995365;28;20486;-83
2022/07/08 03:24:10;;;;;;;10.35;3.42;;;;;;;;;;5012429;28;20053;-84
2022/07/08 03:26:36;;;;;;;10.20;3.80;;;;;;;;;;5011225;28;20398;-83
2022/07/08 03:29:03;;;;;;;9.27;3.38;;;;;;;;;;5010965;28;20038;-83
2022/07/08 03:31:29;;;;;;;9.45;3.47;;;;;;;;;;5011753;28;20045;-84
2022/07/08 03:33:55;;;;;;;10.68;3.50;;;;;;;;;;5012087;28;20045;-84
2022/07/08 03:36:21;;;;;;;10.30;3.67;;;;;;;;;;5011750;28;20088;-84
2022/07/08 03:38:47;;;;;;;13.68;3.60;;;;;;;;;;5012420;28;20467;-83
2022/07/08 03:41:23;;;;;;;8.65;3.40;;;;;;;;;;5011937;28;20638;-84
2022/07/08 03:43:50;;;;;;;10.13;3.58;;;;;;;;;;4993625;28;20108;-84
2022/07/08 03:46:16;;;;;;;8.88;3.53;;;;;;;;;;5011133;28;20137;-84
2022/07/08 03:48:42;;;;;;;10.23;3.28;;;;;;;;;;5012286;28;20506;-84
2022/07/08 03:51:09;;;;;;;9.20;3.40;;;;;;;;;;5012184;28;20376;-84
2022/07/08 03:53:35;;;;;;;15.02;3.72;;;;;;;;;;5011674;28;20042;-84
2022/07/08 03:56:01;;;;;;;7.75;3.50;;;;;;;;;;5011499;28;20037;-84
2022/07/08 03:58:27;;;;;;;10.43;3.30;;;;;;;;;;5011096;28;20558;-84
2022/07/08 04:00:53;;;;;;;6.72;2.90;;;;;;;;;;5012075;28;20096;-84
2022/07/08 04:03:19;;;;;;;12.43;3.50;;;;;;;;;;4994414;28;20095;-84
2022/07/08 04:05:45;;;;;;;10.15;3.08;;;;;;;;;;5010770;28;20050;-84
2022/07/08 04:08:11;;;;;;;9.98;3.20;;;;;;;;;;5011832;28;20430;-84
2022/07/08 04:10:37;;;;;;;7.90;3.33;;;;;;;;;;5012146;28;20646;-84
2022/07/08 04:13:04;;;;;;;8.25;3.05;;;;;;;;;;5010294;28;20057;-84
2022/07/08 04:15:30;;;;;;;8.40;2.97;;;;;;;;;;5010065;28;20073;-84
2022/07/08 04:17:56;;;;;;;8.93;3.08;;;;;;;;;;4994092;28;20403;-83
2022/07/08 04:20:22;;;;;;;6.88;3.00;;;;;;;;;;4994040;28;20115;-84
2022/07/08 04:22:48;;;;;;;9.25;3.33;;;;;;;;;;5011835;28;20042;-84
2022/07/08 04:25:14;;;;;;;11.07;3.30;;;;;;;;;;5010439;28;20050;-84
2022/07/08 04:27:40;;;;;;;12.15;3.50;;;;;;;;;;5010018;28;20049;-84
2022/07/08 04:30:06;;;;;;;12.20;3.53;;;;;;;;;;5011110;28;20072;-84
2022/07/08 04:32:32;;;;;;;11.02;3.33;;;;;;;;;;4993592;28;20503;-84
2022/07/08 04:34:59;;;;;;;14.15;3.83;;;;;;;;;;4993521;28;20054;-84
2022/07/08 04:37:26;;;;;;;11.63;3.38;;;;;;;;;;4992699;28;20058;-84
2022/07/08 04:39:52;;;;;;;11.93;3.47;;;;;;;;;;4993794;28;20125;-84
2022/07/08 04:42:18;;;;;;;8.93;3.17;;;;;;;;;;5010884;28;20042;-84
2022/07/08 04:44:44;;;;;;;11.57;3.55;;;;;;;;;;4992229;28;20679;-84
2022/07/08 04:47:10;;;;;;;9.73;3.17;;;;;;;;;;5009122;28;20209;-84
2022/07/08 04:49:36;;;;;;;9.15;3.08;;;;;;;;;;5010182;28;20133;-84
2022/07/08 04:52:06;;;;;;;10.98;2.92;;;;;;;;;;5010696;28;20202;-84
2022/07/08 04:54:32;;;;;;;14.63;3.92;;;;;;;;;;5011136;28;20069;-84
2022/07/08 04:56:58;;;;;;;8.48;3.38;;;;;;;;;;5009520;28;20129;-84
2022/07/08 04:59:24;;;;;;;7.78;3.33;;;;;;;;;;4992613;28;20077;-84
2022/07/08 05:01:50;;;;;;;9.15;3.13;;;;;;;;;;5010847;28;20579;-84
2022/07/08 05:04:17;;;;;;;8.10;3.25;;;;;;;;;;4976591;28;20120;-84
2022/07/08 05:06:43;;;;;;;13.20;4.53;;;;;;;;;;4992189;28;20124;-84
2022/07/08 05:09:09;;;;;;;9.38;3.17;;;;;;;;;;5010769;28;20041;-84
2022/07/08 05:11:35;;;;;;;12.00;3.55;;;;;;;;;;5010209;28;20088;-84
2022/07/08 05:14:01;;;;;;;10.30;3.55;;;;;;;;;;5009398;28;20040;-85
2022/07/08 05:16:27;;;;;;;11.50;3.28;;;;;;;;;;5009545;28;20045;-84
2022/07/08 05:18:53;;;;;;;11.93;3.90;;;;;;;;;;5008406;28;20049;-84
2022/07/08 05:21:20;;;;;;;9.98;3.30;;;;;;;;;;5010375;28;20148;-84
2022/07/08 05:23:46;;;;;;;8.60;3.05;;;;;;;;;;5010608;28;20076;-84
2022/07/08 05:26:12;;;;;;;11.32;3.45;;;;;;;;;;5008475;28;20132;-84
2022/07/08 05:28:38;;;;;;;12.02;3.10;;;;;;;;;;5009538;28;20046;-84
2022/07/08 05:31:04;;;;;;;10.05;3.47;;;;;;;;;;5009949;28;20050;-84
2022/07/08 05:33:30;;;;;;;10.65;3.30;;;;;;;;;;5009981;28;20099;-84
2022/07/08 05:35:56;;;;;;;11.30;3.33;;;;;;;;;;5008350;28;20496;-84
2022/07/08 05:38:22;;;;;;;9.95;3.13;;;;;;;;;;5010427;28;20038;-84
2022/07/08 05:40:48;;;;;;;9.35;3.30;;;;;;;;;;5009936;28;20089;-84
2022/07/08 05:43:14;;;;;;;16.98;3.30;;;;;;;;;;4991381;28;20193;-84
2022/07/08 05:45:40;;;;;;;8.43;3.13;;;;;;;;;;4991329;28;20112;-84
2022/07/08 05:48:06;;;;;;;13.95;3.20;;;;;;;;;;5009664;28;20099;-84
2022/07/08 05:50:32;;;;;;;13.60;3.75;;;;;;;;;;5009895;28;20125;-84
2022/07/08 05:52:58;;;;;;;9.32;2.95;;;;;;;;;;5009782;28;20642;-85
2022/07/08 05:55:24;;;;;;;13.30;3.20;;;;;;;;;;5009809;28;20168;-84
2022/07/08 05:57:50;;;;;;;10.50;3.60;;;;;;;;;;5008619;28;20115;-86
2022/07/08 06:00:16;;;;;;;11.18;3.53;;;;;;;;;;4988665;28;20042;-84
2022/07/08 06:02:42;;;;;;;10.70;3.20;;;;;;;;;;5009573;28;20045;-84
2022/07/08 06:05:09;;;;;;;10.48;3.80;;;;;;;;;;4975609;28;20045;-84
2022/07/08 06:07:35;;;;;;;11.18;3.45;;;;;;;;;;4991284;28;20060;-84
2022/07/08 06:10:01;;;;;;;12.38;3.45;;;;;;;;;;5009285;28;20446;-84
2022/07/08 06:12:27;;;;;;;10.73;3.35;;;;;;;;;;4987034;28;20483;-84
2022/07/08 06:14:53;;;;;;;9.48;3.30;;;;;;;;;;5000076;28;20050;-84
2022/07/08 06:17:19;;;;;;;10.02;3.40;;;;;;;;;;5003835;28;20038;-83
2022/07/08 06:19:45;;;;;;;8.70;3.53;;;;;;;;;;4992015;28;20060;-83
2022/07/08 06:22:11;;;;;;;12.98;3.40;;;;;;;;;;4992082;28;20042;-83
2022/07/08 06:24:37;;;;;;;10.63;3.50;;;;;;;;;;5009189;28;20045;-83
2022/07/08 06:27:04;;;;;;;11.18;3.42;;;;;;;;;;5006705;28;20045;-83
2022/07/08 06:29:30;;;;;;;9.75;3.20;;;;;;;;;;4987961;28;20050;-82
2022/07/08 06:31:56;;;;;;;8.20;3.47;;;;;;;;;;5009307;28;20046;-83
2022/07/08 06:34:22;;;;;;;9.68;3.38;;;;;;;;;;5009589;28;20166;-83
2022/07/08 06:36:49;;;;;;;10.13;3.20;;;;;;;;;;4989213;28;20387;-83
2022/07/08 06:39:15;;;;;;;6.63;3.00;;;;;;;;;;5009044;28;20073;-83
2022/07/08 06:41:41;;;;;;;9.75;3.10;;;;;;;;;;4990427;28;20100;-83
2022/07/08 06:44:07;;;;;;;8.05;3.05;;;;;;;;;;4984613;28;20459;-83
2022/07/08 06:46:33;;;;;;;7.00;2.90;;;;;;;;;;5009293;28;20062;-83
2022/07/08 06:48:59;;;;;;;11.02;3.15;;;;;;;;;;5013218;28;20129;-83
2022/07/08 06:51:25;;;;;;;7.22;3.15;;;;;;;;;;5013104;28;20133;-83
2022/07/08 06:56:49;;;;;;;9.70;3.13;;;;;;;;;;4962983;28;20050;-83
2022/07/08 06:59:15;;;;;;;7.63;3.40;;;;;;;;;;4967622;28;20058;-83
2022/07/08 07:01:41;;;;;;;12.02;3.38;;;;;;;;;;4952189;28;20043;-83
2022/07/08 07:04:09;;;;;;;8.73;3.17;;;;;;;;;;4951858;28;20416;-83
2022/07/08 07:06:35;;;;;;;10.15;3.03;;;;;;;;;;4956488;28;20054;-83
2022/07/08 07:09:01;;;;;;;9.40;3.22;;;;;;;;;;4968834;28;20046;-86
2022/07/08 07:11:27;;;;;;;9.20;3.08;;;;;;;;;;4959917;28;20070;-83
2022/07/08 07:13:53;;;;;;;9.00;3.55;;;;;;;;;;4952901;28;20069;-81
2022/07/08 07:16:19;;;;;;;11.30;3.33;;;;;;;;;;4969550;28;20075;-85
2022/07/08 07:18:45;;;;;;;11.13;3.33;;;;;;;;;;4969773;28;20057;-83
2022/07/08 07:21:12;;;;;;;10.82;3.63;;;;;;;;;;4970619;28;20038;-87
2022/07/08 07:23:38;;;;;;;7.97;2.90;;;;;;;;;;4955972;28;20063;-85
2022/07/08 07:26:04;;;;;;;9.43;3.33;;;;;;;;;;4966419;28;20055;-84
2022/07/08 07:28:30;;;;;;;9.00;2.97;;;;;;;;;;4935915;29;20051;-82
2022/07/08 07:30:56;;;;;;;11.65;3.53;;;;;;;;;;4958785;28;20046;-84
2022/07/08 07:33:22;;;;;;;6.75;3.08;;;;;;;;;;4990512;28;20054;-86
2022/07/08 07:35:48;;;;;;;10.43;3.05;;;;;;;;;;5011852;28;20104;-82
2022/07/08 07:38:14;;;;;;;9.95;3.45;;;;;;;;;;5012059;28;20462;-82
2022/07/08 07:40:40;;;;;;;12.40;3.45;;;;;;;;;;5011983;28;20510;-82
2022/07/08 07:43:06;;;;;;;8.73;2.90;;;;;;;;;;4993804;28;20417;-82
2022/07/08 07:45:32;;;;;;;8.98;3.35;;;;;;;;;;5003949;28;20479;-82
2022/07/08 07:47:58;;;;;;;10.40;3.63;;;;;;;;;;4994745;28;20053;-83
2022/07/08 07:50:26;;;;;;;8.13;3.20;;;;;;;;;;5011526;28;20129;-83
2022/07/08 07:52:52;;;;;;;10.00;3.20;;;;;;;;;;4994091;28;20207;-83
2022/07/08 07:55:18;;;;;;;11.02;3.15;;;;;;;;;;4978224;28;20515;-83
2022/07/08 07:57:47;;;;;;;11.10;3.10;;;;;;;;;;4993495;28;20061;-83
2022/07/08 08:00:15;;;;;;;9.35;3.08;;;;;;;;;;5009649;28;20564;-83
2022/07/08 08:02:41;;;;;;;11.40;2.97;;;;;;;;;;5007171;28;20137;-83
2022/07/08 08:05:07;;;;;;;8.77;3.10;;;;;;;;;;4993447;28;20097;-82
2022/07/08 08:07:33;;;;;;;8.00;2.78;;;;;;;;;;5010515;28;20045;-83
2022/07/08 08:10:01;;;;;;;6.65;2.50;;;;;;;;;;4962751;28;20049;-83
2022/07/08 08:12:27;;;;;;;10.43;3.17;;;;;;;;;;4979807;28;20088;-83
2022/07/08 08:14:53;;;;;;;10.43;2.92;;;;;;;;;;5009014;28;20065;-83
2022/07/08 08:17:19;;;;;;;7.70;2.80;;;;;;;;;;5010481;28;20443;-90
2022/07/08 08:19:45;;;;;;;7.05;2.83;;;;;;;;;;4992223;28;20125;-83
2022/07/08 08:22:11;;;;;;;8.70;2.90;;;;;;;;;;5008832;28;20125;-85
2022/07/08 08:24:37;;;;;;;6.80;2.53;;;;;;;;;;4992185;28;20038;-85
2022/07/08 08:27:04;;;;;;;7.85;2.72;;;;;;;;;;5007604;28;20069;-84
2022/07/08 08:29:30;;;;;;;10.38;3.05;;;;;;;;;;5004864;28;20058;-84
2022/07/08 08:31:56;;;;;;;7.72;2.80;;;;;;;;;;5009412;28;20219;-84
2022/07/08 08:34:22;;;;;;;7.10;2.80;;;;;;;;;;4993316;28;20054;-84
2022/07/08 08:36:48;;;;;;;6.68;2.80;;;;;;;;;;5011248;28;20368;-84
2022/07/08 08:39:14;;;;;;;9.27;2.80;;;;;;;;;;4993348;28;20460;-84
2022/07/08 08:41:41;;;;;;;9.18;2.80;;;;;;;;;;5010931;28;20412;-85
2022/07/08 08:44:08;;;;;;;7.32;2.83;;;;;;;;;;4992459;28;20081;-84
2022/07/08 08:46:34;;;;;;;8.77;2.78;;;;;;;;;;5009947;28;20337;-84
2022/07/08 08:49:01;;;;;;;7.10;2.60;;;;;;;;;;4992306;28;20499;-84
2022/07/08 08:51:27;;;;;;;9.88;2.80;;;;;;;;;;5011040;28;20045;-84
2022/07/08 08:53:55;;;;;;;5.82;2.65;;;;;;;;;;4989391;28;20085;-84
2022/07/08 08:56:22;;;;;;;7.40;2.85;;;;;;;;;;5008079;28;20992;-84
2022/07/08 08:58:49;;;;;;;7.30;2.67;;;;;;;;;;4993187;28;20049;-84
2022/07/08 09:01:16;;;;;;;7.15;2.60;;;;;;;;;;5009062;28;20406;-83
2022/07/08 09:03:42;;;;;;;6.15;2.88;;;;;;;;;;5003838;28;20407;-83
2022/07/08 09:06:09;;;;;;;8.80;2.50;;;;;;;;;;5006814;28;20050;-84
2022/07/08 09:08:36;;;;;;;5.40;2.42;;;;;;;;;;4991017;28;20037;-83
2022/07/08 09:11:02;;;;;;;6.88;2.70;;;;;;;;;;5006550;28;20052;-83
2022/07/08 09:13:28;;;;;;;6.85;2.50;;;;;;;;;;5002558;28;20050;-83
2022/07/08 09:15:55;;;;;;;6.22;2.63;;;;;;;;;;5007501;28;20136;-83
2022/07/08 09:18:22;;;;;;;6.43;2.70;;;;;;;;;;5014905;28;20045;-84
2022/07/08 09:20:49;;;;;;;10.00;2.83;;;;;;;;;;4992208;28;20454;-86
2022/07/08 09:23:17;;;;;;;6.60;2.72;;;;;;;;;;5007327;28;20042;-83
2022/07/08 09:25:46;;;;;;;7.82;2.47;;;;;;;;;;5010578;28;20056;-84
2022/07/08 09:28:12;;;;;;;6.22;2.75;;;;;;;;;;4993521;28;20662;-85
2022/07/08 09:30:39;;;;;;;8.68;2.88;;;;;;;;;;4992129;28;20593;-86
2022/07/08 09:33:05;;;;;;;6.90;2.58;;;;;;;;;;5001740;28;20100;-85
2022/07/08 09:35:33;;;;;;;6.82;2.67;;;;;;;;;;5004433;28;20129;-83
2022/07/08 09:38:03;;;;;;;5.20;2.42;;;;;;;;;;4991006;28;20542;-87
2022/07/08 09:40:29;;;;;;;6.45;2.78;;;;;;;;;;4989973;28;20113;-84
2022/07/08 09:42:55;;;;;;;7.47;2.90;;;;;;;;;;4990626;28;20078;-85
2022/07/08 09:45:28;;;;;;;8.18;2.70;;;;;;;;;;5002993;28;20085;-84
2022/07/08 09:48:01;;;;;;;7.40;2.75;;;;;;;;;;4990383;28;20097;-82
2022/07/08 09:50:35;;;;;;;7.00;2.40;;;;;;;;;;5010256;28;20533;-85
2022/07/08 09:53:10;;;;;;;7.75;2.70;;;;;;;;;;5009902;28;20519;-85
2022/07/08 09:55:39;;;;;;;8.68;2.80;;;;;;;;;;4992316;28;20079;-85
2022/07/08 09:58:05;;;;;;;7.40;2.45;;;;;;;;;;4991310;28;20042;-85
2022/07/08 10:00:33;;;;;;;6.25;2.58;;;;;;;;;;4990944;28;20073;-86
2022/07/08 10:02:59;;;;;;;4.95;2.70;;;;;;;;;;4990578;28;20201;-84
2022/07/08 10:05:25;;;;;;;6.18;2.65;;;;;;;;;;4989284;28;20121;-85
2022/07/08 10:07:51;;;;;;;8.63;2.55;;;;;;;;;;5010187;28;20128;-85
2022/07/08 10:10:17;;;;;;;5.22;2.47;;;;;;;;;;5009468;28;20064;-84
2022/07/08 10:12:44;;;;;;;7.95;3.10;;;;;;;;;;5009980;28;20046;-85
2022/07/08 10:15:10;;;;;;;4.38;2.78;;;;;;;;;;5008475;28;20041;-86
2022/07/08 10:17:42;;;;;;;5.85;2.70;;;;;;;;;;5009859;28;20257;-85
2022/07/08 10:20:08;;;;;;;5.20;3.17;;;;;;;;;;5008919;28;20064;-85
2022/07/08 10:22:35;;;;;;;9.48;3.42;;;;;;;;;;4981400;28;20046;-84
2022/07/08 10:25:02;;;;;;;7.85;3.33;;;;;;;;;;4993961;28;20125;-84
2022/07/08 10:27:28;;;;;;;7.15;3.00;;;;;;;;;;5010648;28;20054;-85
2022/07/08 10:30:12;;;;;;;7.00;2.90;;;;;;;;;;5013171;28;20046;-85
2022/07/08 10:32:38;;;;;;;8.30;3.08;;;;;;;;;;5013645;28;20042;-85
2022/07/08 10:35:13;;;;;;;7.82;3.38;;;;;;;;;;5012475;28;20053;-85
2022/07/08 10:37:46;;;;;;;10.13;3.45;;;;;;;;;;5013581;28;20152;-85
2022/07/08 10:40:12;;;;;;;8.30;3.20;;;;;;;;;;5013553;28;20129;-85
2022/07/08 10:42:43;;;;;;;10.18;3.33;;;;;;;;;;5013073;28;20128;-85
2022/07/08 10:45:15;;;;;;;5.70;3.15;;;;;;;;;;5012862;28;20101;-87
2022/07/08 10:47:41;;;;;;;8.88;3.42;;;;;;;;;;5013233;28;20085;-84
2022/07/08 10:50:08;;;;;;;8.88;3.88;;;;;;;;;;4994898;28;20117;-84
2022/07/08 10:52:42;;;;;;;7.68;3.58;;;;;;;;;;4995465;28;20061;-85
2022/07/08 10:55:15;;;;;;;6.10;3.20;;;;;;;;;;5013282;28;20073;-85
2022/07/08 10:57:54;;;;;;;7.38;3.60;;;;;;;;;;5013250;28;20046;-84
2022/07/08 11:00:20;;;;;;;9.90;3.80;;;;;;;;;;5012673;28;20410;-85
2022/07/08 11:02:46;;;;;;;8.93;3.22;;;;;;;;;;5013116;28;20037;-86
2022/07/08 11:05:33;;;;;;;7.28;3.20;;;;;;;;;;4994234;28;20049;-85
2022/07/08 11:08:18;;;;;;;7.57;3.42;;;;;;;;;;4993611;28;20509;-84
2022/07/08 11:10:44;;;;;;;7.18;3.42;;;;;;;;;;4998917;28;20038;-85
2022/07/08 11:13:10;;;;;;;7.47;3.40;;;;;;;;;;5012497;28;20042;-84
2022/07/08 11:15:37;;;;;;;7.72;3.35;;;;;;;;;;5013173;28;20050;-84
2022/07/08 11:18:03;;;;;;;6.38;3.60;;;;;;;;;;4994596;28;20046;-85
2022/07/08 11:20:32;;;;;;;8.82;3.40;;;;;;;;;;5013025;28;20045;-85
2022/07/08 11:23:03;;;;;;;7.15;3.60;;;;;;;;;;5010732;28;20507;-85
2022/07/08 11:25:29;;;;;;;7.45;3.50;;;;;;;;;;4994351;28;20514;-84
2022/07/08 11:27:55;;;;;;;7.97;3.40;;;;;;;;;;5012061;28;20050;-85
2022/07/08 11:30:21;;;;;;;9.02;3.90;;;;;;;;;;5012923;28;20046;-85
2022/07/08 11:32:48;;;;;;;8.18;3.33;;;;;;;;;;4994325;28;20054;-84
2022/07/08 11:35:17;;;;;;;11.02;3.75;;;;;;;;;;4994550;28;20050;-85
2022/07/08 11:37:44;;;;;;;8.35;3.50;;;;;;;;;;4978925;28;20108;-85
2022/07/08 11:40:10;;;;;;;9.02;3.45;;;;;;;;;;5011476;28;20065;-85
2022/07/08 11:42:37;;;;;;;9.13;3.67;;;;;;;;;;5011941;28;20494;-85
2022/07/08 11:45:04;;;;;;;8.57;3.72;;;;;;;;;;4994829;28;20050;-84
2022/07/08 11:47:30;;;;;;;9.77;3.67;;;;;;;;;;4994710;28;20495;-85
2022/07/08 11:49:57;;;;;;;6.10;3.30;;;;;;;;;;4994429;28;20061;-85
2022/07/08 11:52:23;;;;;;;7.38;3.35;;;;;;;;;;5012959;28;20502;-84
2022/07/08 11:54:49;;;;;;;8.00;3.70;;;;;;;;;;4993909;28;20042;-85
2022/07/08 11:57:16;;;;;;;10.35;3.90;;;;;;;;;;5011881;28;20108;-84
2022/07/08 11:59:44;;;;;;;8.57;3.55;;;;;;;;;;5012343;28;20073;-85
2022/07/08 12:02:10;;;;;;;9.00;3.83;;;;;;;;;;4994881;28;20111;-85
2022/07/08 12:04:37;;;;;;;7.90;3.80;;;;;;;;;;5011710;28;20045;-85
2022/07/08 12:07:03;;;;;;;7.88;3.50;;;;;;;;;;5011590;28;20054;-85
2022/07/08 12:09:31;;;;;;;10.15;3.55;;;;;;;;;;5011634;28;20046;-85
2022/07/08 12:11:58;;;;;;;7.38;4.00;;;;;;;;;;5011434;28;20053;-85
2022/07/08 12:14:25;;;;;;;8.25;3.97;;;;;;;;;;5009740;28;20042;-87
2022/07/08 12:16:52;;;;;;;6.22;3.58;;;;;;;;;;5008581;28;20052;-83
2022/07/08 12:19:33;;;;;;;7.47;3.78;;;;;;;;;;5010629;28;20046;-83
2022/07/08 12:22:00;;;;;;;9.20;3.50;;;;;;;;;;5010245;28;20061;-83
2022/07/08 12:24:27;;;;;;;10.45;4.05;;;;;;;;;;4994142;28;20045;-84
2022/07/08 12:26:54;;;;;;;8.60;3.80;;;;;;;;;;4993332;28;20333;-83
2022/07/08 12:29:20;;;;;;;9.30;4.40;;;;;;;;;;5011733;28;20068;-83
2022/07/08 12:31:46;;;;;;;8.80;3.95;;;;;;;;;;5011758;28;20122;-83
2022/07/08 12:34:16;;;;;;;6.43;3.80;;;;;;;;;;5009668;28;20085;-83
2022/07/08 12:36:42;;;;;;;7.20;3.65;;;;;;;;;;4994944;28;20038;-84
2022/07/08 12:39:34;;;;;;;6.57;4.05;;;;;;;;;;5008467;28;20072;-86
2022/07/08 12:42:02;;;;;;;8.73;3.92;;;;;;;;;;4985150;28;20054;-83
2022/07/08 12:44:40;;;;;;;12.23;4.13;;;;;;;;;;5010849;28;20153;-83
2022/07/08 12:47:13;;;;;;;7.35;3.47;;;;;;;;;;5010684;28;20558;-83
2022/07/08 12:49:42;;;;;;;7.05;3.25;;;;;;;;;;5011218;28;20068;-83
2022/07/08 12:52:10;;;;;;;8.20;3.30;;;;;;;;;;5010941;28;20077;-83
2022/07/08 12:54:37;;;;;;;9.10;4.50;;;;;;;;;;5010539;28;20057;-83
2022/07/08 12:57:04;;;;;;;9.18;3.70;;;;;;;;;;5009808;28;20042;-84
2022/07/08 12:59:30;;;;;;;10.10;3.70;;;;;;;;;;5011010;28;20038;-83
2022/07/08 13:01:57;;;;;;;8.02;4.13;;;;;;;;;;5010880;28;20088;-84
2022/07/08 13:04:23;;;;;;;9.15;4.13;;;;;;;;;;5010883;28;20054;-83
2022/07/08 13:06:52;;;;;;;8.82;3.80;;;;;;;;;;5010787;28;20124;-83
2022/07/08 13:09:18;;;;;;;10.20;4.20;;;;;;;;;;5010176;28;20050;-84
2022/07/08 13:11:44;;;;;;;9.13;4.22;;;;;;;;;;4992233;28;20606;-83
2022/07/08 13:14:11;;;;;;;9.05;3.67;;;;;;;;;;5010000;28;20080;-83
2022/07/08 13:16:37;;;;;;;10.05;3.70;;;;;;;;;;5010702;28;20057;-83
2022/07/08 13:19:04;;;;;;;8.85;3.65;;;;;;;;;;4976532;28;20049;-83
2022/07/08 13:21:30;;;;;;;6.30;3.75;;;;;;;;;;5010650;28;20061;-83
2022/07/08 13:23:57;;;;;;;6.05;3.35;;;;;;;;;;5009842;28;20081;-83
2022/07/08 13:26:23;;;;;;;8.75;4.15;;;;;;;;;;5008535;28;20045;-84
2022/07/08 13:28:51;;;;;;;8.70;3.22;;;;;;;;;;5010510;28;20411;-83
2022/07/08 13:31:18;;;;;;;8.20;3.60;;;;;;;;;;4992419;28;20042;-83
2022/07/08 13:33:45;;;;;;;7.88;4.00;;;;;;;;;;4993023;28;20073;-84
2022/07/08 13:36:11;;;;;;;9.70;3.42;;;;;;;;;;5009456;28;20077;-83
2022/07/08 13:38:37;;;;;;;7.75;3.13;;;;;;;;;;5010443;28;20045;-84
2022/07/08 13:41:03;;;;;;;14.02;4.10;;;;;;;;;;5008968;28;20161;-84
2022/07/08 13:43:30;;;;;;;6.57;3.35;;;;;;;;;;5010421;28;20064;-84
2022/07/08 13:45:56;;;;;;;5.90;3.20;;;;;;;;;;5009997;28;20053;-84
2022/07/08 13:48:22;;;;;;;7.05;3.35;;;;;;;;;;4992524;28;20123;-84
2022/07/08 13:50:48;;;;;;;5.63;2.90;;;;;;;;;;5009829;28;20136;-91
2022/07/08 13:53:14;;;;;;;7.32;3.28;;;;;;;;;;5009332;28;20046;-91
2022/07/08 13:55:43;;;;;;;6.28;2.70;;;;;;;;;;4996881;28;20053;-91
2022/07/08 13:58:09;;;;;;;6.40;3.05;;;;;;;;;;4984246;28;20069;-87
2022/07/08 14:00:35;;;;;;;6.85;3.08;;;;;;;;;;5010203;28;20434;-84
2022/07/08 14:03:02;;;;;;;6.25;3.30;;;;;;;;;;4987978;28;20092;-83
2022/07/08 14:05:28;;;;;;;7.78;4.00;;;;;;;;;;5003895;28;20520;-83
2022/07/08 14:07:54;;;;;;;6.95;3.10;;;;;;;;;;4992436;28;20054;-85
2022/07/08 14:10:20;;;;;;;7.00;3.10;;;;;;;;;;5009050;28;20042;-84
2022/07/08 14:12:46;;;;;;;6.82;3.03;;;;;;;;;;4976883;28;20054;-85
2022/07/08 14:15:13;;;;;;;11.25;3.55;;;;;;;;;;4990369;28;20101;-85
2022/07/08 14:17:39;;;;;;;11.65;3.42;;;;;;;;;;4993099;28;20081;-84
2022/07/08 14:20:06;;;;;;;11.13;3.67;;;;;;;;;;4988808;28;20433;-84
2022/07/08 14:22:32;;;;;;;4.95;3.47;;;;;;;;;;4988925;28;20129;-84
2022/07/08 14:24:58;;;;;;;8.50;3.50;;;;;;;;;;5009504;28;20057;-84
2022/07/08 14:27:24;;;;;;;7.25;3.28;;;;;;;;;;5002994;28;20050;-85
2022/07/08 14:29:51;;;;;;;9.95;4.40;;;;;;;;;;5053509;23;20029;-78
2022/07/08 14:32:17;;;;;;;8.77;3.55;;;;;;;;;;5058975;28;20036;-77
2022/07/08 14:34:43;;;;;;;8.13;3.88;;;;;;;;;;5054481;28;20057;-78
2022/07/08 14:37:09;;;;;;;7.90;3.88;;;;;;;;;;5041104;28;20077;-77
2022/07/08 14:39:35;;;;;;;8.70;4.22;;;;;;;;;;5057285;28;20058;-77
2022/07/08 14:42:01;;;;;;;9.25;3.67;;;;;;;;;;5057088;28;20036;-76